Ontario, Oregon
Current Conditions -  °F | °C
As of 4:53 PM on Friday 31 Oct 2014 (Local Time) from KONO Reporting Station
Clear Clear  
Wind Chill: 19°   Ceiling: Unl
Heat Index: 19°   Visibility: 10mi
Dew Point:   Wind: 5mph
Humidity: 33%   Direction: 50°NE
Pressure: 29.75"   Gusts: NA
Location:  44.03°N, 116.96°W
Report Text: KONO 312253Z AUTO 05004KT 10SM CLR 19/02 A2975 RMK AO2 SLP073 T01890022
Loading
Personal Weather Stations






























Interactive Weather Map
Tropical Storm Tracking
New forecast layout! Learn more

10-Day Weather Forecast

Advertisements
Track Severe Weather on mobile